CAT,Max TemperatureF,Mean TemperatureF,Min TemperatureF,Max Dew PointF,MeanDew PointF,Min DewpointF,Max Humidity, Mean Humidity, Min Humidity, Max Sea Level PressureIn, Mean Sea Level PressureIn, Min Sea Level PressureIn, Max VisibilityMiles, Mean VisibilityMiles, Min VisibilityMiles, Max Wind SpeedMPH, Mean Wind SpeedMPH, Max Gust SpeedMPH,PrecipitationIn, CloudCover, Events, WindDirDegrees
2011-10-1,89,78,73,61,58,57,65,46,33,30.24,30.16,30.06,6,6,6,17,13,,0.00,6,,100
2011-10-2,66,66,66,55,55,55,68,68,68,30.06,30.06,30.06,,,,6,5,,0.00,,,85
2011-10-3,,,,,,,,,,,,,,,,,,,0.00,,,-1
2011-10-4,73,73,73,63,63,63,69,69,69,30.15,30.09,30.04,6,6,6,6,4,,0.00,7,,150
2011-10-5,84,82,82,61,58,55,48,42,37,30.18,30.16,30.15,,,,12,11,,0.00,,,150
2011-10-6,78,69,60,52,48,46,72,49,32,30.54,30.46,30.42,6,6,6,17,11,,0.00,6,,126
2011-10-7,82,70,57,52,46,41,77,48,23,30.45,30.23,29.92,,,,15,7,,0.00,,,98
2011-10-8,69,53,53,48,46,43,67,56,46,30.36,30.19,30.01,,,,0,0,,0.00,,,-1
2011-10-9,86,84,84,46,46,45,27,25,23,30.33,30.27,30.21,,,,17,15,,0.00,,,135
2011-10-10,82,,82,52,52,52,35,35,35,30.30,30.30,30.30,,,,9,9,,0.00,,,120
2011-10-11,,,,,,,,,,,,,,,,,,,0.00,,,-1
2011-10-12,91,80,77,64,51,45,65,37,20,30.18,30.12,30.04,,,,12,4,,0.00,,,165
2011-10-13,75,60,60,55,52,50,72,63,50,30.12,30.09,30.06,,,,0,0,,0.00,,,-1
2011-10-14,91,87,87,57,54,50,35,30,24,30.12,30.07,30.01,,,,15,13,,0.00,,,155
2011-10-15,95,95,93,59,55,52,30,27,24,29.98,29.95,29.92,,,,6,6,,0.00,,,185
2011-10-16,98,96,89,57,56,55,31,28,24,30.15,30.00,29.92,,,,15,11,,0.00,,,97
2011-10-17,86,71,71,64,63,61,78,60,43,30.04,30.01,29.98,6,6,6,9,9,,0.00,8,,135
2011-10-18,96,81,71,66,63,61,78,52,32,30.04,29.98,29.86,6,6,6,14,13,,0.00,1,,80
2011-10-19,73,,73,68,68,68,83,83,83,29.95,29.95,29.95,,,,9,9,,0.00,,,0
2011-10-20,,,,,,,,,,,,,,,,,,,0.00,,,-1
2011-10-21,,,,,,,,,,,,,,,,,,,0.00,,,-1
2011-10-22,93,81,69,63,61,59,68,47,36,30.04,29.96,29.89,,,,9,6,,0.00,,,99
2011-10-23,80,66,66,66,64,63,88,79,61,30.01,29.98,29.95,,,,6,2,,0.00,,,90
2011-10-24,98,91,91,70,67,64,49,40,32,29.98,29.94,29.89,,,,12,8,,0.00,,,90
2011-10-25,105,,105,52,52,52,17,17,17,29.62,29.62,29.62,,,,12,12,,0.00,,,160
2011-10-26,93,82,75,66,66,66,73,56,41,29.83,29.78,29.71,5,5,5,14,7,,0.00,0,,154
2011-10-27,75,75,75,68,67,66,78,75,73,30.01,29.96,29.92,4,4,4,10,8,,0.00,8,Rain,56
2011-10-28,86,,86,72,72,72,62,62,62,30.04,30.04,30.04,6,6,6,4,4,,0.00,6,,150
2011-10-29,93,86,86,70,69,68,58,51,44,30.06,30.02,29.98,,,,12,10,,0.00,,,120
2011-10-30,98,88,78,68,64,59,69,46,28,30.01,29.93,29.86,,,,12,5,,0.00,,,121
2011-10-31,91,78,77,59,59,59,54,46,34,29.89,29.87,29.86,5,5,5,6,5,,0.00,6,,17